createdAt,value
2022-10-07T00:01:13.537Z,63.71
2022-10-07T00:03:41.351Z,63.91
2022-10-07T00:06:18.618Z,64.00
2022-10-07T00:08:51.978Z,63.96
2022-10-07T00:11:22.487Z,64.01
2022-10-07T00:13:53.563Z,64.49
2022-10-07T00:16:26.844Z,64.45
2022-10-07T00:18:58.380Z,64.46
2022-10-07T00:21:30.381Z,64.79
2022-10-07T00:23:58.439Z,64.56
2022-10-07T00:26:28.942Z,64.15
2022-10-07T00:28:57.436Z,64.50
2022-10-07T00:31:33.969Z,64.37
2022-10-07T00:34:03.164Z,64.08
2022-10-07T00:36:33.552Z,64.08
2022-10-07T00:39:06.465Z,64.36
2022-10-07T00:41:39.350Z,64.32
2022-10-07T00:44:29.688Z,64.30
2022-10-07T00:47:24.108Z,64.27
2022-10-07T00:50:02.048Z,64.11
2022-10-07T00:52:33.620Z,64.09
2022-10-07T00:55:04.821Z,64.28
2022-10-07T00:57:33.863Z,64.11
2022-10-07T01:00:04.069Z,64.04
2022-10-07T01:02:32.414Z,64.00
2022-10-07T01:05:04.138Z,63.96
2022-10-07T01:07:32.538Z,63.92
2022-10-07T01:10:00.677Z,63.64
2022-10-07T01:13:05.208Z,63.37
2022-10-07T01:15:41.999Z,63.44
2022-10-07T01:18:21.186Z,63.62
2022-10-07T01:21:15.479Z,63.64
2022-10-07T01:24:16.302Z,63.51
2022-10-07T01:27:18.307Z,64.07
2022-10-07T01:30:07.527Z,64.56
2022-10-07T01:32:39.355Z,64.46
2022-10-07T01:35:12.704Z,64.17
2022-10-07T01:37:46.604Z,64.34
2022-10-07T01:40:18.243Z,64.53
2022-10-07T01:42:47.245Z,64.25
2022-10-07T01:45:21.299Z,63.92
2022-10-07T01:47:49.445Z,64.23
2022-10-07T01:50:21.231Z,64.31
2022-10-07T01:53:02.872Z,64.27
2022-10-07T01:55:33.895Z,64.20
2022-10-07T01:58:23.663Z,64.61
2022-10-07T02:01:25.964Z,64.75
2022-10-07T02:04:26.633Z,64.65
2022-10-07T02:07:28.233Z,64.24
2022-10-07T02:10:02.132Z,63.82
2022-10-07T02:12:48.623Z,64.15
2022-10-07T02:15:42.885Z,64.30
2022-10-07T02:18:16.397Z,64.48
2022-10-07T02:20:45.525Z,64.38
2022-10-07T02:23:14.338Z,64.23
2022-10-07T02:25:50.408Z,63.96
2022-10-07T02:28:22.810Z,63.70
2022-10-07T02:30:54.263Z,63.84
2022-10-07T02:33:27.784Z,63.72
2022-10-07T02:36:02.862Z,63.73
2022-10-07T02:38:30.966Z,64.08
2022-10-07T02:41:09.671Z,63.92
2022-10-07T02:43:47.905Z,63.66
2022-10-07T02:46:22.509Z,63.78
2022-10-07T02:48:57.385Z,63.77
2022-10-07T02:51:47.165Z,63.65
2022-10-07T02:54:18.627Z,63.30
2022-10-07T02:56:47.591Z,63.79
2022-10-07T02:59:16.022Z,63.73
2022-10-07T03:01:46.715Z,63.93
2022-10-07T03:04:15.930Z,64.35
2022-10-07T03:06:43.903Z,64.12
2022-10-07T03:09:12.053Z,64.38
2022-10-07T03:11:42.707Z,64.23
2022-10-07T03:14:19.166Z,63.98
2022-10-07T03:16:47.164Z,64.14
2022-10-07T03:19:16.013Z,64.20
2022-10-07T03:21:51.273Z,64.30
2022-10-07T03:24:23.041Z,64.04
2022-10-07T03:26:50.969Z,64.06
2022-10-07T03:29:19.906Z,63.70
2022-10-07T03:31:47.803Z,63.77
2022-10-07T03:34:15.598Z,63.95
2022-10-07T03:36:48.106Z,64.13
2022-10-07T03:39:16.923Z,64.34
2022-10-07T03:41:45.586Z,64.33
2022-10-07T03:44:14.560Z,64.29
2022-10-07T03:46:42.622Z,64.45
2022-10-07T03:49:11.185Z,64.45
2022-10-07T03:51:39.154Z,64.46
2022-10-07T03:54:07.570Z,64.55
2022-10-07T03:56:35.784Z,64.73
2022-10-07T03:59:04.017Z,64.49
2022-10-07T04:01:33.163Z,64.61
2022-10-07T04:04:01.597Z,64.82
2022-10-07T04:06:32.654Z,64.79
2022-10-07T04:09:03.465Z,64.61
2022-10-07T04:11:31.388Z,64.65
2022-10-07T04:14:00.736Z,64.57
2022-10-07T04:16:29.125Z,64.48
2022-10-07T04:18:57.288Z,64.29
2022-10-07T04:21:26.427Z,64.19
2022-10-07T04:23:54.208Z,64.26
2022-10-07T04:26:22.200Z,64.64
2022-10-07T04:28:52.427Z,64.64
2022-10-07T04:31:22.660Z,64.89
2022-10-07T04:33:55.917Z,64.88
2022-10-07T04:36:27.324Z,65.27
2022-10-07T04:39:02.085Z,65.24
2022-10-07T04:41:35.307Z,65.07
2022-10-07T04:44:04.416Z,65.07
2022-10-07T04:46:36.454Z,64.86
2022-10-07T04:49:10.803Z,64.85
2022-10-07T04:51:41.031Z,64.78
2022-10-07T04:54:09.892Z,64.73
2022-10-07T04:56:57.026Z,64.70
2022-10-07T04:59:29.163Z,64.54
2022-10-07T05:01:58.493Z,64.54
2022-10-07T05:04:32.761Z,64.54
2022-10-07T05:07:00.613Z,64.44
2022-10-07T05:09:29.674Z,64.49
2022-10-07T05:11:58.601Z,64.48
2022-10-07T05:14:26.735Z,64.52
2022-10-07T05:16:58.262Z,64.43
2022-10-07T05:19:28.616Z,64.42
2022-10-07T05:21:56.866Z,64.42
2022-10-07T05:24:26.944Z,64.42
2022-10-07T05:26:54.973Z,64.48
2022-10-07T05:29:23.997Z,64.60
2022-10-07T05:31:53.120Z,64.74
2022-10-07T05:34:23.810Z,64.65
2022-10-07T05:36:53.358Z,64.43
2022-10-07T05:39:21.943Z,64.60
2022-10-07T05:41:52.368Z,64.52
2022-10-07T05:44:25.107Z,64.57
2022-10-07T05:46:54.654Z,64.55
2022-10-07T05:49:22.728Z,64.53
2022-10-07T05:51:57.698Z,64.79
2022-10-07T05:54:26.649Z,65.45
2022-10-07T05:56:54.753Z,66.14
2022-10-07T05:59:23.758Z,66.84
2022-10-07T06:01:51.768Z,67.50
2022-10-07T06:04:29.006Z,68.15
2022-10-07T06:06:58.785Z,68.26
2022-10-07T06:09:44.926Z,68.11
2022-10-07T06:12:36.841Z,68.10
2022-10-07T06:15:09.825Z,68.31
2022-10-07T06:17:44.267Z,68.50
2022-10-07T06:20:14.239Z,68.64
2022-10-07T06:22:44.367Z,68.45
2022-10-07T06:25:13.544Z,68.42
2022-10-07T06:27:48.412Z,68.27
2022-10-07T06:30:20.275Z,68.19
2022-10-07T06:32:48.741Z,68.16
2022-10-07T06:35:16.618Z,67.80
2022-10-07T06:37:45.104Z,68.08
2022-10-07T06:40:13.372Z,68.14
2022-10-07T06:42:41.639Z,68.20
2022-10-07T06:45:31.413Z,68.12
2022-10-07T06:48:03.032Z,67.99
2022-10-07T06:50:34.226Z,67.57
2022-10-07T06:53:02.442Z,67.47
2022-10-07T06:55:32.992Z,67.04
2022-10-07T06:58:09.147Z,66.83
2022-10-07T07:00:41.744Z,66.44
2022-10-07T07:03:10.416Z,66.05
2022-10-07T07:05:44.607Z,65.98
2022-10-07T07:08:19.447Z,65.86
2022-10-07T07:10:49.127Z,65.69
2022-10-07T07:13:18.242Z,65.63
2022-10-07T07:15:57.918Z,65.58
2022-10-07T07:18:29.884Z,65.20
2022-10-07T07:21:02.949Z,65.02
2022-10-07T07:23:31.275Z,64.83
2022-10-07T07:26:02.308Z,64.59
2022-10-07T07:28:31.454Z,64.35
2022-10-07T07:30:59.545Z,64.18
2022-10-07T07:33:29.088Z,64.14
2022-10-07T07:35:57.557Z,64.08
2022-10-07T07:38:26.322Z,63.68
2022-10-07T07:40:54.718Z,63.13
2022-10-07T07:43:22.489Z,63.21
2022-10-07T07:45:51.181Z,62.83
2022-10-07T07:48:19.202Z,62.46
2022-10-07T07:50:47.085Z,62.28
2022-10-07T07:53:15.038Z,62.32
2022-10-07T07:55:56.448Z,61.90
2022-10-07T07:58:26.495Z,61.75
2022-10-07T08:01:03.733Z,61.82
2022-10-07T08:03:33.127Z,61.56
2022-10-07T08:06:05.189Z,61.58
2022-10-07T08:08:36.428Z,61.26
2022-10-07T08:11:12.715Z,61.01
2022-10-07T08:13:41.867Z,60.84
2022-10-07T08:16:14.261Z,60.44
2022-10-07T08:18:55.488Z,60.47
2022-10-07T08:21:40.249Z,60.63
2022-10-07T08:24:12.439Z,60.59
2022-10-07T08:26:41.820Z,60.12
2022-10-07T08:29:15.315Z,60.12
2022-10-07T08:31:54.242Z,60.23
2022-10-07T08:34:22.256Z,60.11
2022-10-07T08:36:52.117Z,59.81
2022-10-07T08:39:21.445Z,59.65
2022-10-07T08:42:03.394Z,59.38
2022-10-07T08:44:37.940Z,59.07
2022-10-07T08:47:34.712Z,59.03
2022-10-07T08:50:08.957Z,58.29
2022-10-07T08:52:39.793Z,58.16
2022-10-07T08:55:18.830Z,57.64
2022-10-07T08:58:07.590Z,56.24
2022-10-07T09:00:55.859Z,56.22
2022-10-07T09:03:45.262Z,55.72
2022-10-07T09:06:21.230Z,55.10
2022-10-07T09:08:52.739Z,54.80
2022-10-07T09:11:25.726Z,54.76
2022-10-07T09:13:58.096Z,53.36
2022-10-07T09:16:33.190Z,53.10
2022-10-07T09:19:02.991Z,52.94
2022-10-07T09:21:39.489Z,52.02
2022-10-07T09:24:26.474Z,52.13
2022-10-07T09:27:05.030Z,51.06
2022-10-07T09:29:32.886Z,50.95
2022-10-07T09:32:00.748Z,51.75
2022-10-07T09:34:30.406Z,51.25
2022-10-07T09:37:28.123Z,50.85
2022-10-07T09:39:59.697Z,50.05
2022-10-07T09:42:40.168Z,50.47
2022-10-07T09:45:26.508Z,49.24
2022-10-07T09:48:10.808Z,49.42
2022-10-07T09:54:07.865Z,47.69
2022-10-07T09:57:01.455Z,47.40
2022-10-07T10:00:26.793Z,47.11
2022-10-07T10:03:11.983Z,46.92
2022-10-07T10:05:49.989Z,46.29
2022-10-07T10:08:17.809Z,45.89
2022-10-07T10:10:54.195Z,45.97
2022-10-07T10:13:40.886Z,44.62
2022-10-07T10:17:04.601Z,43.78
2022-10-07T10:19:36.427Z,44.49
2022-10-07T10:22:05.401Z,44.18
2022-10-07T10:28:09.792Z,43.12
2022-10-07T10:31:09.968Z,43.08
2022-10-07T10:34:12.322Z,42.47
2022-10-07T10:36:58.085Z,42.38
2022-10-07T10:40:22.975Z,41.51
2022-10-07T10:43:17.207Z,42.32
2022-10-07T10:46:32.723Z,41.55
2022-10-07T10:49:47.555Z,41.10
2022-10-07T10:52:49.593Z,41.70
2022-10-07T10:55:23.961Z,41.96
2022-10-07T10:58:01.450Z,41.37
2022-10-07T11:01:09.249Z,41.12
2022-10-07T11:04:07.479Z,40.85
2022-10-07T11:06:45.587Z,40.87
2022-10-07T11:09:30.482Z,40.82
2022-10-07T11:12:31.344Z,40.41
2022-10-07T11:15:20.753Z,40.38
2022-10-07T11:17:50.901Z,40.65
2022-10-07T11:21:01.259Z,39.80
2022-10-07T11:23:47.625Z,40.20
2022-10-07T11:26:45.544Z,39.98
2022-10-07T11:29:49.544Z,39.95
2022-10-07T11:32:49.329Z,39.95
2022-10-07T11:38:41.944Z,39.09
2022-10-07T11:41:55.507Z,39.50
2022-10-07T11:44:41.843Z,38.74
2022-10-07T11:47:20.796Z,39.05
2022-10-07T11:50:04.132Z,39.03
2022-10-07T11:53:16.507Z,38.61
2022-10-07T11:56:05.456Z,38.72
2022-10-07T11:58:44.939Z,38.61
2022-10-07T12:01:40.337Z,38.08
2022-10-07T12:04:35.461Z,38.23
2022-10-07T12:07:35.115Z,38.88
2022-10-07T12:10:04.343Z,38.33
2022-10-07T12:12:47.238Z,37.72
2022-10-07T12:15:43.682Z,37.92
2022-10-07T12:18:33.585Z,38.03
2022-10-07T12:21:07.408Z,37.97
2022-10-07T12:23:39.931Z,38.18
2022-10-07T12:26:32.061Z,38.01
2022-10-07T12:29:00.793Z,36.63
2022-10-07T12:31:31.715Z,37.47
2022-10-07T12:34:10.950Z,37.93
2022-10-07T12:36:40.792Z,37.90
2022-10-07T12:39:11.885Z,37.62
2022-10-07T12:41:46.307Z,37.69
2022-10-07T12:44:27.418Z,37.24
2022-10-07T12:47:18.411Z,37.06
2022-10-07T12:49:52.390Z,36.87
2022-10-07T12:52:32.562Z,36.53
2022-10-07T12:55:03.719Z,35.85
2022-10-07T12:57:36.518Z,35.94
2022-10-07T13:00:05.374Z,35.79
2022-10-07T13:02:40.150Z,35.92
2022-10-07T13:05:38.966Z,35.90
2022-10-07T13:08:28.948Z,35.83
2022-10-07T13:11:22.842Z,35.78
2022-10-07T13:13:56.693Z,35.66
2022-10-07T13:16:52.637Z,35.40
2022-10-07T13:19:30.412Z,35.47
2022-10-07T13:22:07.090Z,35.39
2022-10-07T13:24:39.862Z,35.27
2022-10-07T13:27:09.484Z,35.15
2022-10-07T13:29:38.825Z,34.77
2022-10-07T13:32:09.802Z,34.67
2022-10-07T13:34:38.996Z,34.63
2022-10-07T13:37:45.190Z,34.78
2022-10-07T13:40:25.983Z,34.33
2022-10-07T13:43:02.151Z,34.41
2022-10-07T13:45:33.384Z,34.54
2022-10-07T13:48:04.898Z,34.38
2022-10-07T13:50:33.999Z,34.09
2022-10-07T13:53:01.857Z,33.46
2022-10-07T13:55:32.296Z,33.53
2022-10-07T13:58:04.253Z,33.64
2022-10-07T14:00:33.968Z,33.28
2022-10-07T14:03:10.379Z,33.18
2022-10-07T14:05:52.035Z,32.93
2022-10-07T14:08:27.824Z,32.38
2022-10-07T14:11:19.901Z,31.88
2022-10-07T14:13:50.318Z,31.74
2022-10-07T14:16:22.532Z,31.55
2022-10-07T14:18:51.385Z,31.40
2022-10-07T14:21:19.444Z,30.94
2022-10-07T14:23:47.415Z,30.36
2022-10-07T14:26:16.540Z,30.49
2022-10-07T14:28:44.871Z,30.52
2022-10-07T14:31:39.695Z,30.01
2022-10-07T14:34:39.059Z,29.91
2022-10-07T14:37:09.471Z,29.79
2022-10-07T14:39:38.621Z,29.97
2022-10-07T14:42:11.640Z,29.65
2022-10-07T14:44:41.476Z,29.45
2022-10-07T14:47:21.054Z,29.29
2022-10-07T14:49:49.295Z,28.91
2022-10-07T14:52:23.531Z,28.76
2022-10-07T14:54:52.261Z,28.56
2022-10-07T14:57:24.350Z,28.80
2022-10-07T14:59:52.756Z,28.92
2022-10-07T15:02:21.039Z,29.04
2022-10-07T15:04:49.475Z,28.98
2022-10-07T15:07:18.041Z,29.44
2022-10-07T15:09:48.408Z,29.63
2022-10-07T15:12:16.593Z,29.71
2022-10-07T15:14:44.531Z,29.61
2022-10-07T15:17:12.986Z,29.70
2022-10-07T15:19:41.455Z,29.66
2022-10-07T15:22:09.274Z,29.94
2022-10-07T15:24:37.502Z,29.94
2022-10-07T15:27:09.732Z,29.71
2022-10-07T15:29:37.501Z,30.03
2022-10-07T15:32:07.163Z,30.53
2022-10-07T15:34:39.585Z,31.47
2022-10-07T15:37:09.183Z,32.36
2022-10-07T15:39:39.956Z,33.55
2022-10-07T15:42:08.619Z,34.75
2022-10-07T15:44:36.675Z,35.78
2022-10-07T15:47:04.459Z,36.90
2022-10-07T15:49:33.654Z,38.17
2022-10-07T15:52:01.548Z,39.03
2022-10-07T15:54:32.641Z,40.00
2022-10-07T15:57:00.526Z,40.89
2022-10-07T15:59:31.597Z,41.90
2022-10-07T16:02:03.703Z,42.98
2022-10-07T16:04:32.685Z,43.67
2022-10-07T16:07:01.067Z,44.55
2022-10-07T16:09:35.261Z,45.37
2022-10-07T16:12:03.149Z,46.24
2022-10-07T16:14:31.564Z,47.01
2022-10-07T16:16:59.452Z,47.59
2022-10-07T16:19:27.296Z,48.38
2022-10-07T16:21:55.472Z,49.30
2022-10-07T16:24:23.793Z,49.94
2022-10-07T16:26:51.964Z,50.96
2022-10-07T16:29:39.909Z,51.62
2022-10-07T16:32:10.653Z,52.09
2022-10-07T16:34:43.246Z,52.53
2022-10-07T16:37:12.117Z,53.21
2022-10-07T16:39:40.089Z,54.15
2022-10-07T16:42:08.364Z,54.39
2022-10-07T16:44:36.313Z,54.70
2022-10-07T16:47:04.274Z,54.99
2022-10-07T16:49:32.211Z,55.42
2022-10-07T16:52:00.170Z,55.64
2022-10-07T16:54:30.356Z,56.17
2022-10-07T16:56:58.598Z,56.32
2022-10-07T16:59:29.157Z,56.85
2022-10-07T17:01:59.892Z,57.12
2022-10-07T17:04:27.737Z,57.60
2022-10-07T17:06:55.593Z,57.85
2022-10-07T17:09:25.239Z,57.96
2022-10-07T17:11:53.245Z,58.27
2022-10-07T17:14:21.940Z,58.53
2022-10-07T17:16:57.082Z,58.42
2022-10-07T17:19:27.271Z,58.85
2022-10-07T17:21:56.017Z,58.92
2022-10-07T17:24:25.253Z,59.06
2022-10-07T17:26:53.470Z,59.38
2022-10-07T17:29:22.285Z,59.43
2022-10-07T17:31:51.165Z,59.56
2022-10-07T17:34:21.015Z,59.79
2022-10-07T17:36:49.601Z,59.96
2022-10-07T17:39:21.812Z,59.92
2022-10-07T17:41:49.785Z,59.92
2022-10-07T17:44:22.865Z,60.20
2022-10-07T17:47:04.293Z,60.37
2022-10-07T17:49:35.291Z,60.59
2022-10-07T17:52:05.991Z,60.79
2022-10-07T17:54:39.453Z,60.92
2022-10-07T17:57:07.251Z,61.10
2022-10-07T17:59:37.152Z,61.55
2022-10-07T18:02:05.628Z,61.75
2022-10-07T18:04:39.457Z,61.88
2022-10-07T18:07:10.551Z,62.06
2022-10-07T18:09:40.949Z,62.33
2022-10-07T18:12:27.372Z,62.35
2022-10-07T18:15:13.799Z,62.45
2022-10-07T18:17:45.003Z,62.55
2022-10-07T18:20:15.326Z,62.59
2022-10-07T18:22:44.195Z,62.72
2022-10-07T18:25:12.312Z,62.81
2022-10-07T18:27:40.664Z,62.86
2022-10-07T18:30:12.516Z,62.97
2022-10-07T18:32:40.302Z,63.01
2022-10-07T18:35:08.461Z,63.00
2022-10-07T18:37:37.458Z,62.91
2022-10-07T18:40:08.154Z,63.13
2022-10-07T18:42:37.838Z,63.11
2022-10-07T18:45:09.275Z,63.17
2022-10-07T18:47:37.070Z,63.51
2022-10-07T18:50:05.281Z,63.68
2022-10-07T18:52:33.160Z,63.81
2022-10-07T18:55:02.052Z,64.11
2022-10-07T18:57:30.339Z,64.26
2022-10-07T18:59:59.030Z,64.41
2022-10-07T19:02:27.426Z,64.36
2022-10-07T19:04:56.210Z,64.35
2022-10-07T19:07:24.031Z,64.36
2022-10-07T19:09:52.114Z,64.46
2022-10-07T19:12:38.398Z,64.50
2022-10-07T19:15:06.805Z,64.59
2022-10-07T19:17:34.733Z,64.61
2022-10-07T19:20:04.912Z,64.51
2022-10-07T19:22:32.700Z,64.45
2022-10-07T19:25:22.259Z,64.57
2022-10-07T19:27:50.071Z,64.54
2022-10-07T19:30:17.894Z,64.51
2022-10-07T19:32:46.786Z,64.69
2022-10-07T19:35:14.694Z,64.85
2022-10-07T19:37:42.715Z,64.99
2022-10-07T19:40:11.311Z,65.22
2022-10-07T19:42:40.032Z,65.29
2022-10-07T19:45:09.276Z,65.32
2022-10-07T19:47:37.094Z,65.36
2022-10-07T19:50:05.156Z,65.44
2022-10-07T19:52:33.124Z,65.60
2022-10-07T19:55:01.564Z,65.56
2022-10-07T19:57:29.405Z,65.76
2022-10-07T19:59:57.203Z,65.92
2022-10-07T20:02:25.080Z,65.84
2022-10-07T20:04:53.965Z,65.92
2022-10-07T20:07:23.714Z,66.09
2022-10-07T20:09:51.518Z,66.33
2022-10-07T20:12:19.381Z,66.67
2022-10-07T20:14:47.848Z,66.80
2022-10-07T20:17:16.300Z,66.77
2022-10-07T20:19:44.117Z,66.97
2022-10-07T20:22:12.813Z,66.96
2022-10-07T20:24:40.626Z,67.04
2022-10-07T20:27:09.038Z,67.10
2022-10-07T20:29:56.881Z,67.08
2022-10-07T20:32:27.260Z,67.15
2022-10-07T20:34:55.127Z,67.27
2022-10-07T20:37:23.184Z,67.29
2022-10-07T20:40:09.619Z,67.21
2022-10-07T20:42:39.795Z,67.04
2022-10-07T20:45:09.226Z,67.04
2022-10-07T20:47:38.818Z,67.02
2022-10-07T20:50:08.589Z,67.02
2022-10-07T20:52:36.971Z,67.06
2022-10-07T20:55:05.605Z,67.17
2022-10-07T20:57:37.916Z,67.06
2022-10-07T21:00:09.323Z,66.92
2022-10-07T21:02:37.200Z,67.12
2022-10-07T21:05:06.219Z,66.90
2022-10-07T21:07:33.982Z,66.92
2022-10-07T21:10:01.889Z,67.01
2022-10-07T21:12:32.573Z,67.10
2022-10-07T21:15:05.641Z,66.98
2022-10-07T21:17:34.886Z,67.03
2022-10-07T21:20:03.471Z,67.07
2022-10-07T21:22:31.283Z,67.04
2022-10-07T21:25:00.134Z,67.06
2022-10-07T21:27:31.261Z,67.06
2022-10-07T21:30:06.195Z,67.03
2022-10-07T21:32:34.532Z,67.09
2022-10-07T21:35:02.317Z,67.14
2022-10-07T21:37:30.367Z,67.04
2022-10-07T21:39:59.699Z,67.20
2022-10-07T21:42:28.730Z,67.07
2022-10-07T21:44:56.726Z,67.02
2022-10-07T21:47:25.371Z,67.21
2022-10-07T21:49:57.055Z,67.10
2022-10-07T21:52:25.626Z,66.98
2022-10-07T21:54:55.357Z,67.06
2022-10-07T21:57:23.119Z,67.10
2022-10-07T21:59:52.217Z,67.32
2022-10-07T22:02:22.483Z,67.32
2022-10-07T22:04:59.297Z,67.43
2022-10-07T22:07:48.968Z,67.40
2022-10-07T22:10:23.210Z,67.49
2022-10-07T22:12:54.146Z,67.30
2022-10-07T22:15:23.725Z,67.66
2022-10-07T22:18:11.576Z,67.86
2022-10-07T22:20:44.285Z,67.88
2022-10-07T22:23:17.784Z,67.82
2022-10-07T22:25:59.698Z,68.09
2022-10-07T22:28:31.789Z,68.07
2022-10-07T22:31:02.617Z,68.12
2022-10-07T22:33:30.764Z,68.10
2022-10-07T22:35:59.336Z,68.19
2022-10-07T22:38:28.511Z,68.08
2022-10-07T22:40:56.273Z,67.94
2022-10-07T22:43:24.478Z,67.81
2022-10-07T22:45:58.918Z,67.63
2022-10-07T22:48:27.181Z,67.53
2022-10-07T22:51:08.395Z,67.40
2022-10-07T22:53:38.195Z,67.46
2022-10-07T22:56:07.836Z,67.38
2022-10-07T22:58:35.638Z,67.22
2022-10-07T23:01:04.780Z,67.31
2022-10-07T23:03:32.913Z,67.33
2022-10-07T23:06:01.028Z,67.42
2022-10-07T23:08:30.790Z,67.46
2022-10-07T23:10:59.603Z,67.50
2022-10-07T23:13:27.694Z,67.55
2022-10-07T23:16:06.919Z,67.61
2022-10-07T23:18:34.852Z,67.69
2022-10-07T23:21:07.884Z,67.72
2022-10-07T23:23:37.134Z,67.83
2022-10-07T23:26:09.032Z,67.79
2022-10-07T23:28:39.669Z,67.92
2022-10-07T23:31:09.912Z,67.92
2022-10-07T23:33:37.961Z,68.14
2022-10-07T23:36:08.955Z,68.21
2022-10-07T23:38:46.921Z,68.25
2022-10-07T23:41:20.277Z,68.23
2022-10-07T23:43:53.040Z,68.28
2022-10-07T23:46:22.255Z,68.18
2022-10-07T23:48:50.462Z,68.26
2022-10-07T23:51:20.519Z,68.29
2022-10-07T23:53:48.803Z,68.29
2022-10-07T23:56:18.603Z,68.38
2022-10-07T23:58:46.465Z,68.42
